createdAt,value
2023-07-03T00:00:28.223Z,5.70
2023-07-03T00:02:56.377Z,5.70
2023-07-03T00:05:25.271Z,6.10
2023-07-03T00:07:53.775Z,6.10
2023-07-03T00:10:22.927Z,4.88
2023-07-03T00:12:51.700Z,5.63
2023-07-03T00:15:20.305Z,5.63
2023-07-03T00:17:49.758Z,5.18
2023-07-03T00:20:18.274Z,5.50
2023-07-03T00:22:47.948Z,6.05
2023-07-03T00:25:16.459Z,6.10
2023-07-03T00:27:44.508Z,6.20
2023-07-03T00:30:13.645Z,5.93
2023-07-03T00:32:41.828Z,6.03
2023-07-03T00:35:11.652Z,5.57
2023-07-03T00:37:40.707Z,5.95
2023-07-03T00:40:11.955Z,5.50
2023-07-03T00:42:40.150Z,5.95
2023-07-03T00:45:11.052Z,5.40
2023-07-03T00:47:40.154Z,5.88
2023-07-03T00:50:09.141Z,5.50
2023-07-03T00:52:40.881Z,5.70
2023-07-03T00:55:12.687Z,5.80
2023-07-03T00:57:42.650Z,5.95
2023-07-03T01:00:11.669Z,5.95
2023-07-03T01:02:44.099Z,5.75
2023-07-03T01:05:18.444Z,5.88
2023-07-03T01:07:48.966Z,5.65
2023-07-03T01:10:20.464Z,5.20
2023-07-03T01:12:52.663Z,5.75
2023-07-03T01:15:24.500Z,5.30
2023-07-03T01:17:54.609Z,5.22
2023-07-03T01:20:25.318Z,5.47
2023-07-03T01:23:03.838Z,5.20
2023-07-03T01:25:35.458Z,5.32
2023-07-03T01:28:05.552Z,5.53
2023-07-03T01:30:35.035Z,5.40
2023-07-03T01:33:05.949Z,5.10
2023-07-03T01:35:34.758Z,5.53
2023-07-03T01:38:05.439Z,5.90
2023-07-03T01:40:36.481Z,5.18
2023-07-03T01:43:04.828Z,5.13
2023-07-03T01:45:36.087Z,5.95
2023-07-03T01:48:04.653Z,5.18
2023-07-03T01:50:34.149Z,6.40
2023-07-03T01:53:06.069Z,5.38
2023-07-03T01:55:42.354Z,5.40
2023-07-03T01:58:23.863Z,5.70
2023-07-03T02:00:54.678Z,5.78
2023-07-03T02:03:32.346Z,5.57
2023-07-03T02:06:04.392Z,5.68
2023-07-03T02:08:33.307Z,6.40
2023-07-03T02:11:03.191Z,6.55
2023-07-03T02:13:31.333Z,5.85
2023-07-03T02:16:00.983Z,5.88
2023-07-03T02:18:29.066Z,6.05
2023-07-03T02:20:57.148Z,6.28
2023-07-03T02:23:25.249Z,5.75
2023-07-03T02:25:53.624Z,5.50
2023-07-03T02:28:23.228Z,5.60
2023-07-03T02:30:51.650Z,6.80
2023-07-03T02:33:19.858Z,6.53
2023-07-03T02:35:47.925Z,5.18
2023-07-03T02:38:16.572Z,4.95
2023-07-03T02:40:44.768Z,5.55
2023-07-03T02:43:12.805Z,5.40
2023-07-03T02:45:44.828Z,4.85
2023-07-03T02:48:15.038Z,4.65
2023-07-03T02:50:47.009Z,4.55
2023-07-03T02:53:15.204Z,4.43
2023-07-03T02:55:44.324Z,4.18
2023-07-03T02:58:12.984Z,4.90
2023-07-03T03:00:41.163Z,4.90
2023-07-03T03:03:10.707Z,4.45
2023-07-03T03:05:38.816Z,4.15
2023-07-03T03:08:08.947Z,4.40
2023-07-03T03:10:37.205Z,4.35
2023-07-03T03:13:05.428Z,4.18
2023-07-03T03:15:36.880Z,4.00
2023-07-03T03:18:05.844Z,3.55
2023-07-03T03:20:35.297Z,3.50
2023-07-03T03:23:03.797Z,3.58
2023-07-03T03:25:31.917Z,3.95
2023-07-03T03:28:00.062Z,4.45
2023-07-03T03:30:28.258Z,4.63
2023-07-03T03:32:56.437Z,4.60
2023-07-03T03:35:24.587Z,4.55
2023-07-03T03:37:54.697Z,5.28
2023-07-03T03:40:22.828Z,5.22
2023-07-03T03:42:52.417Z,5.82
2023-07-03T03:45:20.627Z,5.50
2023-07-03T03:47:49.787Z,4.50
2023-07-03T03:50:18.659Z,5.32
2023-07-03T03:52:47.069Z,4.63
2023-07-03T03:55:17.342Z,5.07
2023-07-03T03:57:45.380Z,4.78
2023-07-03T04:00:18.355Z,5.40
2023-07-03T04:02:48.067Z,4.43
2023-07-03T04:05:16.480Z,4.80
2023-07-03T04:07:45.083Z,4.10
2023-07-03T04:10:13.225Z,4.43
2023-07-03T04:12:42.643Z,4.15
2023-07-03T04:15:11.106Z,4.50
2023-07-03T04:17:39.202Z,4.10
2023-07-03T04:20:12.306Z,4.30
2023-07-03T04:22:40.331Z,4.35
2023-07-03T04:25:09.198Z,4.60
2023-07-03T04:27:38.418Z,3.88
2023-07-03T04:30:09.379Z,4.30
2023-07-03T04:32:38.660Z,3.88
2023-07-03T04:35:07.856Z,4.05
2023-07-03T04:37:36.020Z,3.97
2023-07-03T04:40:06.001Z,3.65
2023-07-03T04:42:34.161Z,3.22
2023-07-03T04:45:03.488Z,3.60
2023-07-03T04:47:33.075Z,3.70
2023-07-03T04:50:01.220Z,3.58
2023-07-03T04:52:29.567Z,3.50
2023-07-03T04:54:57.600Z,3.30
2023-07-03T04:57:27.608Z,3.45
2023-07-03T04:59:56.205Z,3.10
2023-07-03T05:02:25.269Z,3.72
2023-07-03T05:04:55.211Z,3.80
2023-07-03T05:07:24.557Z,4.05
2023-07-03T05:09:52.740Z,3.60
2023-07-03T05:12:20.804Z,3.63
2023-07-03T05:14:48.855Z,3.70
2023-07-03T05:17:16.895Z,3.63
2023-07-03T05:19:44.932Z,3.25
2023-07-03T05:22:14.327Z,3.58
2023-07-03T05:24:42.455Z,3.65
2023-07-03T05:27:10.508Z,3.85
2023-07-03T05:29:38.553Z,3.30
2023-07-03T05:32:07.765Z,3.17
2023-07-03T05:34:39.089Z,3.08
2023-07-03T05:37:07.445Z,3.30
2023-07-03T05:39:38.533Z,2.80
2023-07-03T05:42:07.305Z,2.88
2023-07-03T05:44:35.359Z,2.58
2023-07-03T05:47:05.524Z,2.90
2023-07-03T05:49:35.787Z,3.15
2023-07-03T05:52:03.938Z,2.75
2023-07-03T05:54:32.129Z,2.97
2023-07-03T05:57:02.895Z,2.63
2023-07-03T05:59:30.954Z,2.65
2023-07-03T06:01:59.313Z,2.90
2023-07-03T06:04:27.879Z,2.90
2023-07-03T06:06:57.644Z,3.20
2023-07-03T06:09:26.643Z,2.83
2023-07-03T06:11:54.810Z,3.00
2023-07-03T06:14:26.016Z,2.42
2023-07-03T06:16:55.339Z,2.28
2023-07-03T06:19:23.514Z,2.42
2023-07-03T06:21:51.602Z,2.55
2023-07-03T06:24:19.893Z,2.15
2023-07-03T06:26:48.010Z,3.03
2023-07-03T06:29:16.494Z,2.13
2023-07-03T06:31:45.974Z,2.53
2023-07-03T06:34:14.074Z,2.60
2023-07-03T06:36:42.375Z,2.70
2023-07-03T06:39:11.380Z,2.30
2023-07-03T06:41:39.476Z,1.83
2023-07-03T06:44:15.075Z,1.92
2023-07-03T06:46:45.707Z,2.65
2023-07-03T06:49:15.797Z,2.17
2023-07-03T06:51:43.941Z,2.30
2023-07-03T06:54:12.000Z,2.28
2023-07-03T06:56:40.094Z,2.05
2023-07-03T06:59:08.116Z,2.50
2023-07-03T07:01:36.316Z,2.53
2023-07-03T07:04:06.108Z,2.33
2023-07-03T07:06:34.264Z,2.30
2023-07-03T07:09:04.693Z,2.55
2023-07-03T07:11:35.199Z,2.20
2023-07-03T07:14:06.259Z,2.47
2023-07-03T07:16:37.005Z,1.80
2023-07-03T07:19:08.258Z,2.38
2023-07-03T07:21:39.178Z,2.00
2023-07-03T07:24:15.481Z,2.60
2023-07-03T07:26:43.606Z,2.08
2023-07-03T07:29:12.093Z,2.13
2023-07-03T07:31:42.460Z,2.58
2023-07-03T07:34:13.580Z,2.85
2023-07-03T07:36:42.165Z,2.13
2023-07-03T07:39:10.915Z,2.20
2023-07-03T07:41:39.076Z,2.42
2023-07-03T07:44:07.815Z,2.80
2023-07-03T07:46:36.691Z,2.60
2023-07-03T07:49:05.194Z,2.50
2023-07-03T07:51:34.692Z,2.65
2023-07-03T07:54:04.435Z,2.05
2023-07-03T07:56:34.354Z,2.42
2023-07-03T07:59:02.785Z,2.63
2023-07-03T08:01:31.023Z,1.90
2023-07-03T08:03:59.234Z,2.15
2023-07-03T08:06:27.368Z,2.00
2023-07-03T08:08:56.888Z,2.65
2023-07-03T08:11:27.402Z,2.45
2023-07-03T08:13:55.547Z,2.38
2023-07-03T08:16:23.628Z,2.35
2023-07-03T08:18:51.823Z,2.47
2023-07-03T08:21:19.894Z,2.40
2023-07-03T08:23:47.939Z,2.40
2023-07-03T08:26:22.857Z,2.42
2023-07-03T08:28:51.040Z,2.22
2023-07-03T08:31:19.346Z,2.65
2023-07-03T08:33:47.587Z,1.90
2023-07-03T08:38:47.099Z,2.67
2023-07-03T08:41:16.109Z,2.58
2023-07-03T08:43:49.551Z,2.72
2023-07-03T08:46:21.707Z,3.25
2023-07-03T08:48:52.452Z,2.40
2023-07-03T08:51:24.312Z,3.28
2023-07-03T08:53:56.501Z,2.28
2023-07-03T08:56:27.178Z,2.63
2023-07-03T08:58:58.084Z,2.55
2023-07-03T09:01:33.496Z,2.30
2023-07-03T09:04:17.346Z,2.13
2023-07-03T09:06:51.889Z,2.13
2023-07-03T09:09:24.578Z,2.28
2023-07-03T09:11:58.513Z,2.67
2023-07-03T09:14:42.540Z,2.67
2023-07-03T09:17:11.906Z,2.63
2023-07-03T09:19:44.405Z,2.35
2023-07-03T09:22:21.614Z,2.25
2023-07-03T09:24:53.026Z,2.47
2023-07-03T09:27:24.223Z,2.50
2023-07-03T09:29:55.204Z,2.10
2023-07-03T09:32:28.121Z,2.58
2023-07-03T09:35:01.368Z,1.85
2023-07-03T09:37:29.966Z,2.00
2023-07-03T09:39:58.180Z,2.35
2023-07-03T09:42:27.985Z,1.38
2023-07-03T09:44:57.429Z,1.90
2023-07-03T09:47:30.193Z,2.25
2023-07-03T09:50:05.551Z,2.10
2023-07-03T09:52:33.727Z,1.98
2023-07-03T09:55:04.981Z,1.80
2023-07-03T09:57:35.807Z,2.50
2023-07-03T10:00:15.763Z,1.95
2023-07-03T10:07:49.325Z,2.80
2023-07-03T10:13:01.838Z,2.25
2023-07-03T10:15:34.552Z,2.20
2023-07-03T10:18:06.816Z,2.40
2023-07-03T10:20:38.097Z,2.17
2023-07-03T10:23:09.317Z,2.08
2023-07-03T10:25:40.847Z,2.22
2023-07-03T10:28:13.540Z,1.95
2023-07-03T10:30:43.443Z,1.60
2023-07-03T10:33:17.038Z,1.50
2023-07-03T10:35:45.801Z,1.63
2023-07-03T10:38:20.944Z,1.30
2023-07-03T10:40:57.864Z,1.50
2023-07-03T10:43:29.230Z,2.00
2023-07-03T10:46:00.130Z,1.40
2023-07-03T10:48:33.926Z,1.83
2023-07-03T10:51:11.616Z,2.05
2023-07-03T10:53:45.770Z,1.50
2023-07-03T10:56:20.601Z,1.85
2023-07-03T10:58:55.517Z,1.58
2023-07-03T11:01:31.670Z,1.60
2023-07-03T11:04:25.502Z,2.00
2023-07-03T11:07:04.367Z,1.73
2023-07-03T11:09:44.289Z,1.48
2023-07-03T11:12:21.232Z,1.20
2023-07-03T11:14:59.662Z,1.73
2023-07-03T11:17:37.515Z,1.60
2023-07-03T11:20:10.978Z,1.25
2023-07-03T11:22:48.191Z,1.58
2023-07-03T11:25:23.770Z,1.55
2023-07-03T11:27:58.719Z,1.20
2023-07-03T11:30:27.446Z,1.25
2023-07-03T11:33:01.077Z,1.27
2023-07-03T11:40:39.116Z,1.30
2023-07-03T11:43:34.593Z,1.40
2023-07-03T11:46:09.847Z,1.40
2023-07-03T11:48:47.466Z,1.50
2023-07-03T11:51:17.136Z,1.70
2023-07-03T11:53:49.051Z,1.70
2023-07-03T11:56:47.800Z,1.80
2023-07-03T11:59:26.429Z,1.60
2023-07-03T12:01:56.966Z,1.60
2023-07-03T12:04:52.788Z,1.83
2023-07-03T12:07:50.393Z,1.50
2023-07-03T12:10:42.724Z,1.70
2023-07-03T12:13:52.236Z,1.73
2023-07-03T12:16:22.877Z,2.17
2023-07-03T12:18:59.179Z,1.60
2023-07-03T12:21:36.293Z,1.60
2023-07-03T12:24:20.303Z,1.70
2023-07-03T12:26:56.312Z,2.13
2023-07-03T12:29:24.495Z,2.05
2023-07-03T12:32:06.508Z,2.30
2023-07-03T12:34:37.438Z,2.03
2023-07-03T12:37:10.411Z,2.10
2023-07-03T12:39:38.794Z,2.25
2023-07-03T12:42:09.094Z,1.83
2023-07-03T12:44:37.755Z,1.70
2023-07-03T12:47:10.075Z,1.48
2023-07-03T12:49:49.600Z,1.45
2023-07-03T12:52:19.057Z,1.67
2023-07-03T12:54:49.966Z,1.77
2023-07-03T12:57:19.119Z,1.23
2023-07-03T12:59:51.726Z,1.58
2023-07-03T13:02:22.938Z,1.17
2023-07-03T13:05:00.128Z,1.52
2023-07-03T13:07:30.718Z,1.13
2023-07-03T13:10:01.791Z,1.48
2023-07-03T13:12:30.518Z,1.65
2023-07-03T13:15:03.968Z,1.30
2023-07-03T13:17:32.778Z,1.27
2023-07-03T13:20:27.667Z,1.58
2023-07-03T13:23:00.659Z,1.50
2023-07-03T13:25:35.728Z,1.10
2023-07-03T13:28:06.996Z,1.83
2023-07-03T13:30:37.261Z,1.83
2023-07-03T13:33:07.857Z,1.63
2023-07-03T13:35:40.170Z,1.73
2023-07-03T13:38:28.631Z,1.50
2023-07-03T13:40:58.227Z,1.40
2023-07-03T13:43:27.574Z,1.25
2023-07-03T13:45:56.827Z,1.60
2023-07-03T13:48:28.128Z,1.40
2023-07-03T13:50:57.286Z,1.40
2023-07-03T13:53:28.663Z,1.15
2023-07-03T13:55:56.818Z,1.92
2023-07-03T13:58:25.001Z,1.20
2023-07-03T14:00:52.994Z,1.40
2023-07-03T14:03:21.464Z,1.50
2023-07-03T14:05:49.964Z,1.17
2023-07-03T14:08:18.404Z,1.27
2023-07-03T14:10:48.049Z,1.45
2023-07-03T14:13:16.170Z,1.52
2023-07-03T14:15:44.559Z,1.40
2023-07-03T14:18:13.729Z,1.60
2023-07-03T14:20:41.765Z,1.30
2023-07-03T14:23:09.951Z,1.70
2023-07-03T14:25:38.452Z,1.50
2023-07-03T14:28:08.589Z,1.48
2023-07-03T14:30:36.670Z,1.48
2023-07-03T14:33:04.917Z,1.45
2023-07-03T14:35:33.312Z,2.05
2023-07-03T14:38:01.410Z,1.73
2023-07-03T14:40:29.458Z,2.30
2023-07-03T14:42:57.497Z,1.90
2023-07-03T14:45:26.976Z,1.80
2023-07-03T14:47:55.005Z,1.75
2023-07-03T14:50:23.068Z,1.70
2023-07-03T14:52:51.427Z,1.30
2023-07-03T14:55:20.145Z,1.50
2023-07-03T14:57:48.235Z,1.73
2023-07-03T15:00:16.955Z,1.40
2023-07-03T15:02:49.760Z,1.27
2023-07-03T15:05:19.253Z,1.27
2023-07-03T15:07:49.961Z,1.85
2023-07-03T15:10:19.370Z,1.90
2023-07-03T15:12:47.426Z,1.60
2023-07-03T15:15:15.618Z,1.23
2023-07-03T15:17:43.686Z,1.40
2023-07-03T15:20:14.458Z,1.50
2023-07-03T15:22:42.508Z,1.25
2023-07-03T15:25:11.025Z,1.35
2023-07-03T15:27:39.046Z,1.30
2023-07-03T15:30:08.194Z,1.38
2023-07-03T15:32:36.244Z,1.42
2023-07-03T15:35:04.707Z,1.35
2023-07-03T15:37:34.109Z,1.70
2023-07-03T15:40:02.254Z,1.90
2023-07-03T15:42:30.275Z,1.73
2023-07-03T15:44:59.725Z,1.58
2023-07-03T15:47:28.372Z,1.63
2023-07-03T15:49:57.450Z,1.58
2023-07-03T15:52:25.755Z,1.30
2023-07-03T15:54:55.389Z,1.35
2023-07-03T15:57:23.626Z,1.23
2023-07-03T15:59:51.757Z,1.38
2023-07-03T16:02:19.870Z,1.50
2023-07-03T16:04:48.046Z,1.42
2023-07-03T16:07:16.309Z,1.73
2023-07-03T16:09:44.451Z,1.92
2023-07-03T16:12:15.678Z,1.73
2023-07-03T16:14:47.282Z,1.50
2023-07-03T16:17:15.713Z,1.60
2023-07-03T16:20:04.396Z,1.35
2023-07-03T16:22:32.454Z,1.60
2023-07-03T16:25:00.541Z,1.55
2023-07-03T16:27:30.008Z,1.63
2023-07-03T16:29:58.126Z,1.73
2023-07-03T16:32:26.363Z,1.92
2023-07-03T16:34:54.460Z,1.48
2023-07-03T16:37:22.606Z,1.70
2023-07-03T16:39:50.691Z,1.85
2023-07-03T16:42:18.827Z,1.98
2023-07-03T16:44:48.420Z,2.15
2023-07-03T16:47:16.731Z,1.70
2023-07-03T16:49:44.921Z,2.05
2023-07-03T16:52:13.006Z,1.73
2023-07-03T16:54:41.112Z,1.95
2023-07-03T16:57:09.117Z,1.90
2023-07-03T16:59:37.176Z,1.92
2023-07-03T17:02:06.774Z,2.20
2023-07-03T17:04:35.711Z,2.22
2023-07-03T17:07:03.944Z,2.03
2023-07-03T17:09:32.051Z,1.73
2023-07-03T17:12:00.124Z,1.80
2023-07-03T17:14:28.147Z,1.92
2023-07-03T17:16:56.218Z,2.03
2023-07-03T17:19:25.648Z,1.90
2023-07-03T17:21:53.748Z,2.38
2023-07-03T17:24:21.792Z,2.72
2023-07-03T17:26:49.866Z,1.85
2023-07-03T17:29:17.953Z,2.08
2023-07-03T17:31:45.992Z,2.10
2023-07-03T17:34:15.339Z,2.22
2023-07-03T17:36:44.760Z,2.60
2023-07-03T17:39:13.178Z,3.47
2023-07-03T17:41:44.247Z,3.33
2023-07-03T17:44:12.319Z,2.80
2023-07-03T17:46:41.243Z,3.15
2023-07-03T17:49:09.345Z,3.55
2023-07-03T17:51:37.593Z,2.33
2023-07-03T17:54:07.833Z,2.08
2023-07-03T17:56:36.640Z,2.15
2023-07-03T17:59:04.894Z,2.45
2023-07-03T18:01:33.075Z,2.17
2023-07-03T18:04:01.622Z,2.38
2023-07-03T18:06:30.051Z,1.95
2023-07-03T18:08:58.172Z,2.05
2023-07-03T18:11:27.591Z,2.35
2023-07-03T18:13:55.753Z,2.50
2023-07-03T18:16:24.150Z,2.08
2023-07-03T18:18:52.228Z,2.22
2023-07-03T18:21:20.325Z,2.33
2023-07-03T18:23:48.940Z,2.15
2023-07-03T18:26:17.195Z,2.40
2023-07-03T18:28:46.637Z,1.90
2023-07-03T18:31:14.867Z,2.67
2023-07-03T18:33:43.004Z,2.40
2023-07-03T18:36:11.363Z,2.20
2023-07-03T18:38:39.535Z,2.25
2023-07-03T18:41:08.146Z,1.98
2023-07-03T18:43:36.277Z,2.33
2023-07-03T18:46:08.296Z,2.25
2023-07-03T18:48:36.567Z,2.30
2023-07-03T18:51:04.801Z,2.10
2023-07-03T18:53:32.865Z,2.80
2023-07-03T18:56:01.184Z,1.98
2023-07-03T18:58:29.242Z,2.10
2023-07-03T19:00:57.381Z,2.45
2023-07-03T19:03:26.900Z,1.95
2023-07-03T19:05:57.490Z,1.73
2023-07-03T19:08:26.106Z,3.28
2023-07-03T19:10:54.208Z,2.08
2023-07-03T19:13:22.298Z,2.50
2023-07-03T19:15:50.547Z,2.30
2023-07-03T19:18:18.815Z,2.55
2023-07-03T19:20:48.288Z,3.15
2023-07-03T19:23:16.401Z,2.55
2023-07-03T19:25:44.903Z,2.03
2023-07-03T19:28:12.987Z,2.40
2023-07-03T19:30:41.041Z,2.40
2023-07-03T19:33:11.264Z,2.33
2023-07-03T19:35:39.354Z,1.92
2023-07-03T19:38:10.471Z,2.70
2023-07-03T19:40:39.695Z,2.63
2023-07-03T19:43:08.284Z,2.60
2023-07-03T19:45:37.146Z,2.50
2023-07-03T19:48:07.232Z,2.53
2023-07-03T19:50:37.091Z,2.80
2023-07-03T19:53:05.621Z,2.15
2023-07-03T19:55:36.070Z,2.35
2023-07-03T19:58:04.409Z,1.95
2023-07-03T20:00:32.653Z,2.50
2023-07-03T20:03:02.247Z,2.33
2023-07-03T20:05:30.812Z,2.15
2023-07-03T20:07:58.826Z,2.67
2023-07-03T20:10:26.978Z,2.90
2023-07-03T20:12:56.618Z,2.78
2023-07-03T20:15:24.810Z,2.67
2023-07-03T20:17:52.938Z,3.13
2023-07-03T20:20:21.074Z,2.80
2023-07-03T20:22:49.767Z,3.00
2023-07-03T20:25:17.894Z,3.03
2023-07-03T20:27:46.085Z,3.08
2023-07-03T20:30:15.807Z,3.22
2023-07-03T20:32:44.982Z,3.13
2023-07-03T20:35:13.336Z,3.15
2023-07-03T20:37:41.533Z,3.08
2023-07-03T20:40:10.456Z,3.47
2023-07-03T20:42:38.689Z,3.22
2023-07-03T20:45:08.212Z,3.13
2023-07-03T20:47:37.638Z,3.38
2023-07-03T20:50:06.525Z,3.40
2023-07-03T20:52:36.647Z,3.45
2023-07-03T20:55:23.494Z,3.33
2023-07-03T20:57:52.062Z,3.88
2023-07-03T21:00:21.641Z,3.70
2023-07-03T21:02:53.634Z,3.53
2023-07-03T21:05:22.589Z,3.55
2023-07-03T21:07:50.643Z,3.38
2023-07-03T21:10:18.854Z,3.33
2023-07-03T21:12:47.622Z,3.08
2023-07-03T21:15:15.892Z,3.85
2023-07-03T21:17:46.607Z,3.30
2023-07-03T21:20:16.363Z,3.63
2023-07-03T21:22:44.721Z,3.85
2023-07-03T21:25:12.769Z,3.65
2023-07-03T21:27:40.870Z,3.83
2023-07-03T21:30:10.291Z,3.38
2023-07-03T21:32:40.703Z,2.78
2023-07-03T21:35:09.648Z,2.63
2023-07-03T21:37:39.165Z,2.53
2023-07-03T21:40:10.434Z,3.00
2023-07-03T21:42:38.539Z,3.25
2023-07-03T21:45:07.719Z,3.10
2023-07-03T21:47:35.792Z,2.70
2023-07-03T21:50:04.834Z,2.78
2023-07-03T21:52:32.893Z,2.10
2023-07-03T21:55:02.313Z,2.17
2023-07-03T21:57:30.917Z,2.00
2023-07-03T21:59:58.997Z,1.98
2023-07-03T22:02:27.452Z,2.08
2023-07-03T22:04:55.619Z,2.17
2023-07-03T22:07:23.828Z,1.67
2023-07-03T22:09:52.337Z,1.45
2023-07-03T22:12:24.127Z,1.90
2023-07-03T22:14:52.268Z,1.80
2023-07-03T22:17:20.368Z,1.67
2023-07-03T22:19:50.780Z,2.20
2023-07-03T22:22:19.408Z,1.65
2023-07-03T22:24:47.426Z,2.03
2023-07-03T22:27:15.446Z,2.00
2023-07-03T22:29:44.876Z,2.00
2023-07-03T22:32:13.125Z,1.67
2023-07-03T22:34:41.190Z,1.73
2023-07-03T22:37:09.527Z,1.95
2023-07-03T22:39:38.238Z,1.52
2023-07-03T22:42:07.080Z,1.90
2023-07-03T22:44:35.126Z,1.80
2023-07-03T22:47:04.875Z,1.80
2023-07-03T22:49:32.998Z,2.13
2023-07-03T22:52:01.123Z,1.73
2023-07-03T22:54:29.296Z,2.05
2023-07-03T22:56:57.556Z,2.15
2023-07-03T22:59:25.662Z,2.42
2023-07-03T23:01:54.424Z,2.17
2023-07-03T23:04:23.973Z,2.03
2023-07-03T23:06:53.106Z,2.10
2023-07-03T23:09:21.953Z,3.20
2023-07-03T23:11:52.246Z,2.13
2023-07-03T23:14:20.306Z,2.17
2023-07-03T23:16:49.522Z,2.63
2023-07-03T23:19:17.994Z,2.55
2023-07-03T23:21:50.335Z,2.17
2023-07-03T23:24:19.447Z,2.10
2023-07-03T23:26:47.792Z,2.28
2023-07-03T23:29:15.907Z,2.40
2023-07-03T23:31:45.705Z,2.75
2023-07-03T23:34:14.416Z,2.47
2023-07-03T23:36:42.687Z,2.40
2023-07-03T23:39:13.068Z,2.40
2023-07-03T23:41:41.117Z,2.33
2023-07-03T23:44:09.224Z,2.50
2023-07-03T23:46:37.671Z,2.33
2023-07-03T23:49:05.950Z,2.65
2023-07-03T23:51:34.767Z,2.97
2023-07-03T23:54:02.840Z,2.58
2023-07-03T23:56:32.304Z,2.78
2023-07-03T23:59:01.252Z,2.88
